createdAt,value
2023-08-13T00:00:57.929Z,96515.72
2023-08-13T00:03:25.595Z,96506.56
2023-08-13T00:05:53.251Z,96510.84
2023-08-13T00:08:20.797Z,96510.56
2023-08-13T00:10:48.372Z,96511.78
2023-08-13T00:13:17.337Z,96512.50
2023-08-13T00:15:44.892Z,96514.31
2023-08-13T00:18:12.599Z,96510.28
2023-08-13T00:20:40.167Z,96507.28
2023-08-13T00:23:07.828Z,96519.47
2023-08-13T00:25:35.389Z,96528.81
2023-08-13T00:28:02.945Z,96517.91
2023-08-13T00:30:31.830Z,96517.91
2023-08-13T00:32:59.419Z,96524.69
2023-08-13T00:35:27.012Z,96524.31
2023-08-13T00:37:54.605Z,96534.09
2023-08-13T00:40:22.159Z,96530.06
2023-08-13T00:42:49.737Z,96537.22
2023-08-13T00:45:17.417Z,96534.25
2023-08-13T00:47:46.647Z,96537.31
2023-08-13T00:50:14.427Z,96539.69
2023-08-13T00:52:42.476Z,96540.06
2023-08-13T00:55:10.961Z,96550.53
2023-08-13T00:57:38.954Z,96550.56
2023-08-13T01:00:11.723Z,96559.75
2023-08-13T01:02:39.591Z,96562.25
2023-08-13T01:05:08.802Z,96556.59
2023-08-13T01:07:44.146Z,96554.72
2023-08-13T01:10:20.125Z,96546.88
2023-08-13T01:12:54.161Z,96552.63
2023-08-13T01:15:28.435Z,96545.13
2023-08-13T01:17:58.007Z,96562.34
2023-08-13T01:20:31.088Z,96556.16
2023-08-13T01:23:00.643Z,96552.44
2023-08-13T01:25:28.689Z,96547.84
2023-08-13T01:28:01.013Z,96559.91
2023-08-13T01:30:34.508Z,96553.53
2023-08-13T01:33:04.886Z,96549.16
2023-08-13T01:35:34.668Z,96550.56
2023-08-13T01:38:04.883Z,96548.09
2023-08-13T01:40:32.485Z,96554.59
2023-08-13T01:43:00.073Z,96549.72
2023-08-13T01:45:27.649Z,96544.91
2023-08-13T01:47:55.529Z,96551.28
2023-08-13T01:50:23.763Z,96535.72
2023-08-13T01:52:51.342Z,96545.28
2023-08-13T01:55:20.466Z,96540.97
2023-08-13T01:57:48.015Z,96541.41
2023-08-13T02:00:15.715Z,96532.50
2023-08-13T02:02:43.293Z,96531.69
2023-08-13T02:05:11.108Z,96535.44
2023-08-13T02:07:38.714Z,96529.03
2023-08-13T02:10:06.822Z,96530.75
2023-08-13T02:12:35.742Z,96526.56
2023-08-13T02:15:03.277Z,96527.41
2023-08-13T02:17:30.898Z,96543.69
2023-08-13T02:19:58.485Z,96539.09
2023-08-13T02:22:26.061Z,96534.09
2023-08-13T02:24:53.637Z,96529.91
2023-08-13T02:27:21.387Z,96523.69
2023-08-13T02:29:50.274Z,96526.38
2023-08-13T02:32:17.822Z,96534.91
2023-08-13T02:34:46.377Z,96539.50
2023-08-13T02:37:14.036Z,96549.03
2023-08-13T02:39:41.752Z,96542.00
2023-08-13T02:42:09.340Z,96541.16
2023-08-13T02:44:36.888Z,96544.03
2023-08-13T02:47:06.041Z,96542.75
2023-08-13T02:49:33.632Z,96543.16
2023-08-13T02:52:01.210Z,96546.91
2023-08-13T02:54:28.773Z,96543.63
2023-08-13T02:56:56.347Z,96546.97
2023-08-13T02:59:23.889Z,96548.63
2023-08-13T03:01:51.458Z,96548.19
2023-08-13T03:04:20.428Z,96553.19
2023-08-13T03:06:47.999Z,96556.13
2023-08-13T03:09:21.071Z,96554.25
2023-08-13T03:11:48.877Z,96549.06
2023-08-13T03:14:16.606Z,96544.50
2023-08-13T03:16:44.248Z,96539.50
2023-08-13T03:19:11.845Z,96545.56
2023-08-13T03:21:40.809Z,96543.53
2023-08-13T03:24:08.839Z,96541.69
2023-08-13T03:26:36.502Z,96545.00
2023-08-13T03:29:04.144Z,96544.75
2023-08-13T03:31:31.741Z,96542.06
2023-08-13T03:33:59.405Z,96544.53
2023-08-13T03:36:26.959Z,96549.75
2023-08-13T03:38:55.867Z,96543.53
2023-08-13T03:41:23.441Z,96552.91
2023-08-13T03:43:50.992Z,96555.38
2023-08-13T03:46:18.571Z,96547.50
2023-08-13T03:48:46.151Z,96551.41
2023-08-13T03:51:13.709Z,96557.00
2023-08-13T03:53:41.277Z,96549.13
2023-08-13T03:56:10.321Z,96545.44
2023-08-13T03:58:39.405Z,96547.69
2023-08-13T04:01:08.028Z,96542.31
2023-08-13T04:03:36.639Z,96543.78
2023-08-13T04:06:04.570Z,96539.00
2023-08-13T04:08:35.277Z,96547.88
2023-08-13T04:11:02.869Z,96557.22
2023-08-13T04:13:31.731Z,96552.03
2023-08-13T04:15:59.297Z,96559.69
2023-08-13T04:18:26.841Z,96554.91
2023-08-13T04:20:54.427Z,96563.00
2023-08-13T04:23:22.022Z,96567.34
2023-08-13T04:25:49.598Z,96572.28
2023-08-13T04:28:17.146Z,96577.66
2023-08-13T04:30:46.046Z,96575.72
2023-08-13T04:33:13.613Z,96565.53
2023-08-13T04:35:41.172Z,96563.06
2023-08-13T04:38:08.747Z,96555.75
2023-08-13T04:40:36.592Z,96551.16
2023-08-13T04:43:04.180Z,96546.44
2023-08-13T04:45:31.788Z,96547.84
2023-08-13T04:48:00.711Z,96557.00
2023-08-13T04:50:28.497Z,96549.78
2023-08-13T04:52:56.085Z,96547.41
2023-08-13T04:55:23.678Z,96546.19
2023-08-13T04:57:51.256Z,96549.50
2023-08-13T05:00:18.972Z,96550.97
2023-08-13T05:02:46.566Z,96547.19
2023-08-13T05:05:15.643Z,96544.41
2023-08-13T05:07:43.249Z,96536.13
2023-08-13T05:10:11.243Z,96550.16
2023-08-13T05:12:38.802Z,96533.31
2023-08-13T05:15:07.650Z,96537.69
2023-08-13T05:17:36.594Z,96540.47
2023-08-13T05:20:05.548Z,96535.34
2023-08-13T05:22:34.520Z,96531.16
2023-08-13T05:25:02.067Z,96535.84
2023-08-13T05:27:29.679Z,96529.84
2023-08-13T05:29:57.321Z,96529.06
2023-08-13T05:32:25.757Z,96526.00
2023-08-13T05:34:53.439Z,96540.69
2023-08-13T05:37:21.177Z,96545.97
2023-08-13T05:39:50.098Z,96533.19
2023-08-13T05:42:17.644Z,96539.28
2023-08-13T05:44:45.278Z,96535.78
2023-08-13T05:47:14.995Z,96542.28
2023-08-13T05:49:42.699Z,96535.94
2023-08-13T05:52:10.270Z,96517.94
2023-08-13T05:54:37.863Z,96528.09
2023-08-13T05:57:06.932Z,96553.31
2023-08-13T05:59:34.531Z,96566.28
2023-08-13T06:02:02.081Z,96553.78
2023-08-13T06:04:29.635Z,96549.28
2023-08-13T06:06:57.166Z,96549.53
2023-08-13T06:09:24.836Z,96544.03
2023-08-13T06:11:52.359Z,96532.38
2023-08-13T06:14:21.260Z,96536.88
2023-08-13T06:16:52.670Z,96538.38
2023-08-13T06:19:25.359Z,96540.25
2023-08-13T06:21:52.920Z,96536.38
2023-08-13T06:24:20.438Z,96536.88
2023-08-13T06:26:47.978Z,96536.97
2023-08-13T06:29:15.506Z,96534.22
2023-08-13T06:31:44.455Z,96536.03
2023-08-13T06:34:12.474Z,96533.06
2023-08-13T06:36:40.370Z,96537.91
2023-08-13T06:39:07.988Z,96546.88
2023-08-13T06:41:35.504Z,96548.16
2023-08-13T06:44:03.105Z,96553.63
2023-08-13T06:46:30.827Z,96547.41
2023-08-13T06:48:59.770Z,96554.25
2023-08-13T06:51:27.318Z,96548.22
2023-08-13T06:53:54.880Z,96558.59
2023-08-13T06:56:22.511Z,96550.69
2023-08-13T06:58:50.036Z,96550.41
2023-08-13T07:01:17.633Z,96553.69
2023-08-13T07:03:45.688Z,96566.78
2023-08-13T07:06:14.685Z,96562.44
2023-08-13T07:08:42.375Z,96561.88
2023-08-13T07:11:09.923Z,96572.56
2023-08-13T07:13:37.466Z,96571.03
2023-08-13T07:16:05.468Z,96561.47
2023-08-13T07:18:33.020Z,96564.34
2023-08-13T07:21:00.560Z,96561.69
2023-08-13T07:23:29.965Z,96559.38
2023-08-13T07:25:57.914Z,96548.13
2023-08-13T07:28:25.567Z,96548.19
2023-08-13T07:30:53.121Z,96540.34
2023-08-13T07:33:20.664Z,96548.75
2023-08-13T07:35:48.176Z,96548.53
2023-08-13T07:38:15.751Z,96534.34
2023-08-13T07:40:44.642Z,96536.63
2023-08-13T07:43:12.210Z,96536.34
2023-08-13T07:45:39.815Z,96543.59
2023-08-13T07:48:08.414Z,96542.66
2023-08-13T07:50:35.990Z,96540.16
2023-08-13T07:53:03.567Z,96536.47
2023-08-13T07:55:31.337Z,96546.03
2023-08-13T07:58:00.204Z,96548.06
2023-08-13T08:00:28.419Z,96554.59
2023-08-13T08:02:56.095Z,96548.59
2023-08-13T08:05:23.846Z,96547.53
2023-08-13T08:07:51.430Z,96555.81
2023-08-13T08:10:19.153Z,96563.22
2023-08-13T08:12:46.745Z,96566.84
2023-08-13T08:15:15.672Z,96570.78
2023-08-13T08:17:43.239Z,96572.13
2023-08-13T08:20:12.283Z,96571.59
2023-08-13T08:22:39.826Z,96579.06
2023-08-13T08:25:11.754Z,96581.00
2023-08-13T08:27:39.780Z,96575.34
2023-08-13T08:30:08.753Z,96565.63
2023-08-13T08:32:38.036Z,96573.81
2023-08-13T08:35:06.739Z,96561.66
2023-08-13T08:37:34.736Z,96562.47
2023-08-13T08:40:02.495Z,96560.78
2023-08-13T08:42:32.186Z,96568.03
2023-08-13T08:45:00.756Z,96560.44
2023-08-13T08:47:28.775Z,96559.16
2023-08-13T08:49:57.732Z,96537.31
2023-08-13T08:52:25.280Z,96540.59
2023-08-13T08:54:53.726Z,96547.16
2023-08-13T08:57:21.262Z,96545.47
2023-08-13T08:59:48.856Z,96545.22
2023-08-13T09:02:16.547Z,96540.56
2023-08-13T09:04:44.746Z,96544.66
2023-08-13T09:07:13.668Z,96548.88
2023-08-13T09:09:44.401Z,96540.84
2023-08-13T09:12:12.202Z,96538.09
2023-08-13T09:14:39.787Z,96543.28
2023-08-13T09:17:07.352Z,96535.13
2023-08-13T09:19:34.968Z,96532.91
2023-08-13T09:22:04.248Z,96534.84
2023-08-13T09:24:34.894Z,96534.81
2023-08-13T09:27:04.078Z,96541.38
2023-08-13T09:29:32.273Z,96545.13
2023-08-13T09:32:00.517Z,96541.56
2023-08-13T09:34:28.527Z,96545.13
2023-08-13T09:36:56.305Z,96544.53
2023-08-13T09:39:24.309Z,96551.56
2023-08-13T09:41:53.843Z,96552.78
2023-08-13T09:44:25.330Z,96561.16
2023-08-13T09:46:55.570Z,96562.31
2023-08-13T09:49:23.865Z,96558.72
2023-08-13T09:51:54.301Z,96550.38
2023-08-13T09:54:30.451Z,96547.97
2023-08-13T09:57:04.733Z,96547.19
2023-08-13T09:59:35.383Z,96536.09
2023-08-13T10:02:06.628Z,96527.66
2023-08-13T10:04:35.476Z,96526.53
2023-08-13T10:07:05.491Z,96530.03
2023-08-13T10:09:34.309Z,96523.69
2023-08-13T10:12:04.026Z,96526.34
2023-08-13T10:14:32.725Z,96524.09
2023-08-13T10:17:02.510Z,96513.56
2023-08-13T10:19:31.146Z,96506.75
2023-08-13T10:21:59.440Z,96516.63
2023-08-13T10:24:30.845Z,96521.06
2023-08-13T10:27:00.238Z,96514.72
2023-08-13T10:29:37.372Z,96516.91
2023-08-13T10:32:13.651Z,96523.38
2023-08-13T10:34:43.163Z,96519.13
2023-08-13T10:37:16.944Z,96522.03
2023-08-13T10:39:46.055Z,96523.50
2023-08-13T10:42:48.647Z,96525.25
2023-08-13T10:45:18.632Z,96530.69
2023-08-13T10:47:48.119Z,96524.22
2023-08-13T10:50:22.106Z,96526.25
2023-08-13T10:52:51.642Z,96525.97
2023-08-13T10:55:20.634Z,96532.41
2023-08-13T10:57:52.099Z,96525.06
2023-08-13T11:00:23.511Z,96527.50
2023-08-13T11:02:54.953Z,96535.69
2023-08-13T11:05:23.887Z,96532.72
2023-08-13T11:07:53.064Z,96536.94
2023-08-13T11:10:22.298Z,96531.63
2023-08-13T11:12:51.242Z,96522.19
2023-08-13T11:15:21.553Z,96516.06
2023-08-13T11:17:49.290Z,96509.59
2023-08-13T11:20:19.569Z,96506.13
2023-08-13T11:22:47.523Z,96501.22
2023-08-13T11:25:15.750Z,96502.84
2023-08-13T11:27:43.726Z,96501.75
2023-08-13T11:30:12.324Z,96503.88
2023-08-13T11:32:41.486Z,96492.59
2023-08-13T11:35:10.979Z,96498.03
2023-08-13T11:37:39.114Z,96484.88
2023-08-13T11:40:10.859Z,96492.53
2023-08-13T11:42:38.713Z,96489.47
2023-08-13T11:45:12.873Z,96485.97
2023-08-13T11:47:41.782Z,96487.69
2023-08-13T11:50:20.361Z,96483.03
2023-08-13T11:53:03.828Z,96472.44
2023-08-13T11:55:31.603Z,96469.16
2023-08-13T11:58:00.046Z,96473.63
2023-08-13T12:00:28.553Z,96483.97
2023-08-13T12:02:58.236Z,96480.09
2023-08-13T12:05:27.996Z,96485.16
2023-08-13T12:07:57.442Z,96475.84
2023-08-13T12:10:25.306Z,96469.72
2023-08-13T12:12:52.862Z,96471.75
2023-08-13T12:15:23.279Z,96471.84
2023-08-13T12:17:50.842Z,96462.59
2023-08-13T12:20:19.925Z,96454.13
2023-08-13T12:22:47.903Z,96451.16
2023-08-13T12:25:15.489Z,96447.25
2023-08-13T12:27:44.191Z,96448.38
2023-08-13T12:30:12.956Z,96449.34
2023-08-13T12:32:40.597Z,96444.56
2023-08-13T12:35:10.134Z,96442.56
2023-08-13T12:37:39.030Z,96439.88
2023-08-13T12:40:10.142Z,96435.16
2023-08-13T12:42:37.798Z,96438.19
2023-08-13T12:45:07.051Z,96437.00
2023-08-13T12:47:35.173Z,96428.44
2023-08-13T12:50:02.953Z,96432.53
2023-08-13T12:52:31.577Z,96423.91
2023-08-13T12:55:00.547Z,96413.69
2023-08-13T12:57:28.173Z,96412.94
2023-08-13T12:59:55.917Z,96412.03
2023-08-13T13:02:27.107Z,96411.66
2023-08-13T13:04:56.594Z,96410.22
2023-08-13T13:07:24.815Z,96408.69
2023-08-13T13:09:52.396Z,96403.75
2023-08-13T13:12:21.668Z,96396.72
2023-08-13T13:14:49.225Z,96405.19
2023-08-13T13:17:17.806Z,96405.84
2023-08-13T13:19:45.374Z,96395.88
2023-08-13T13:22:13.406Z,96389.41
2023-08-13T13:24:41.227Z,96383.28
2023-08-13T13:27:08.769Z,96393.31
2023-08-13T13:29:37.653Z,96390.25
2023-08-13T13:32:05.781Z,96382.13
2023-08-13T13:34:33.360Z,96391.16
2023-08-13T13:37:00.936Z,96394.31
2023-08-13T13:39:28.475Z,96404.22
2023-08-13T13:41:56.020Z,96396.66
2023-08-13T13:44:24.124Z,96393.69
2023-08-13T13:46:53.272Z,96383.91
2023-08-13T13:49:20.811Z,96376.50
2023-08-13T13:51:48.544Z,96378.22
2023-08-13T13:54:16.082Z,96376.63
2023-08-13T13:56:43.634Z,96373.69
2023-08-13T13:59:11.172Z,96357.00
2023-08-13T14:01:40.957Z,96351.38
2023-08-13T14:04:12.272Z,96359.19
2023-08-13T14:06:40.055Z,96364.91
2023-08-13T14:09:07.851Z,96354.59
2023-08-13T14:11:35.430Z,96365.09
2023-08-13T14:14:03.407Z,96368.81
2023-08-13T14:16:30.955Z,96368.09
2023-08-13T14:18:58.555Z,96368.22
2023-08-13T14:21:27.425Z,96367.66
2023-08-13T14:23:54.998Z,96360.41
2023-08-13T14:26:22.580Z,96352.91
2023-08-13T14:28:50.131Z,96354.34
2023-08-13T14:31:17.769Z,96359.41
2023-08-13T14:33:45.334Z,96351.53
2023-08-13T14:36:12.896Z,96350.16
2023-08-13T14:38:41.791Z,96350.25
2023-08-13T14:41:09.421Z,96350.38
2023-08-13T14:43:36.999Z,96353.00
2023-08-13T14:46:04.611Z,96354.72
2023-08-13T14:48:32.223Z,96357.03
2023-08-13T14:50:59.782Z,96355.56
2023-08-13T14:53:27.339Z,96355.84
2023-08-13T14:55:56.261Z,96357.69
2023-08-13T14:58:24.902Z,96362.94
2023-08-13T15:00:52.560Z,96368.94
2023-08-13T15:03:20.181Z,96373.88
2023-08-13T15:05:47.767Z,96377.19
2023-08-13T15:08:15.316Z,96369.50
2023-08-13T15:10:42.863Z,96363.44
2023-08-13T15:13:11.747Z,96368.94
2023-08-13T15:15:39.881Z,96367.59
2023-08-13T15:18:08.869Z,96355.84
2023-08-13T15:20:36.856Z,96361.59
2023-08-13T15:23:04.808Z,96355.81
2023-08-13T15:25:44.981Z,96357.47
2023-08-13T15:28:21.462Z,96353.13
2023-08-13T15:30:49.076Z,96362.13
2023-08-13T15:33:16.646Z,96354.47
2023-08-13T15:35:52.128Z,96359.91
2023-08-13T15:38:22.757Z,96348.72
2023-08-13T15:40:50.865Z,96354.13
2023-08-13T15:43:18.533Z,96357.84
2023-08-13T15:45:48.017Z,96357.94
2023-08-13T15:48:15.686Z,96353.28
2023-08-13T15:50:43.263Z,96354.16
2023-08-13T15:53:10.803Z,96341.59
2023-08-13T15:55:39.036Z,96354.03
2023-08-13T15:58:07.956Z,96349.91
2023-08-13T16:00:36.133Z,96345.47
2023-08-13T16:03:06.239Z,96337.91
2023-08-13T16:05:34.286Z,96335.28
2023-08-13T16:08:01.902Z,96334.47
2023-08-13T16:10:30.345Z,96342.06
2023-08-13T16:12:57.951Z,96340.19
2023-08-13T16:15:25.812Z,96337.25
2023-08-13T16:17:53.419Z,96335.94
2023-08-13T16:20:22.642Z,96338.38
2023-08-13T16:22:50.223Z,96335.09
2023-08-13T16:25:18.933Z,96334.94
2023-08-13T16:27:46.502Z,96331.25
2023-08-13T16:30:14.775Z,96318.53
2023-08-13T16:32:44.210Z,96317.63
2023-08-13T16:35:12.425Z,96299.78
2023-08-13T16:37:41.312Z,96290.78
2023-08-13T16:40:10.402Z,96286.72
2023-08-13T16:42:51.196Z,96290.81
2023-08-13T16:45:26.277Z,96272.81
2023-08-13T16:47:55.751Z,96274.97
2023-08-13T16:50:23.591Z,96279.94
2023-08-13T16:52:52.754Z,96285.34
2023-08-13T16:55:20.522Z,96290.03
2023-08-13T16:57:48.106Z,96290.06
2023-08-13T17:00:15.928Z,96302.84
2023-08-13T17:02:44.736Z,96300.44
2023-08-13T17:05:13.167Z,96285.91
2023-08-13T17:07:40.961Z,96287.19
2023-08-13T17:10:10.685Z,96290.09
2023-08-13T17:12:38.417Z,96286.59
2023-08-13T17:15:21.124Z,96285.75
2023-08-13T17:17:49.707Z,96286.44
2023-08-13T17:20:20.913Z,96300.69
2023-08-13T17:22:49.508Z,96290.56
2023-08-13T17:25:18.369Z,96289.44
2023-08-13T17:27:46.668Z,96294.41
2023-08-13T17:30:14.881Z,96302.81
2023-08-13T17:32:42.419Z,96317.97
2023-08-13T17:35:10.665Z,96307.50
2023-08-13T17:37:38.231Z,96307.28
2023-08-13T17:40:06.859Z,96314.38
2023-08-13T17:42:35.759Z,96314.94
2023-08-13T17:45:03.743Z,96316.53
2023-08-13T17:47:31.544Z,96320.19
2023-08-13T17:49:59.226Z,96312.16
2023-08-13T17:52:29.230Z,96312.00
2023-08-13T17:54:56.954Z,96317.13
2023-08-13T17:57:24.545Z,96315.78
2023-08-13T17:59:53.735Z,96309.72
2023-08-13T18:02:21.364Z,96314.88
2023-08-13T18:04:48.974Z,96315.13
2023-08-13T18:07:16.941Z,96310.56
2023-08-13T18:09:44.809Z,96325.44
2023-08-13T18:12:12.387Z,96325.97
2023-08-13T18:14:39.984Z,96319.28
2023-08-13T18:17:09.267Z,96315.00
2023-08-13T18:19:36.849Z,96316.22
2023-08-13T18:22:04.441Z,96307.03
2023-08-13T18:24:32.055Z,96311.53
2023-08-13T18:26:59.592Z,96324.41
2023-08-13T18:29:27.194Z,96324.38
2023-08-13T18:31:54.802Z,96319.84
2023-08-13T18:34:23.782Z,96317.84
2023-08-13T18:36:51.348Z,96327.38
2023-08-13T18:39:18.915Z,96331.88
2023-08-13T18:41:46.527Z,96328.31
2023-08-13T18:44:14.101Z,96321.09
2023-08-13T18:46:43.865Z,96321.75
2023-08-13T18:49:11.432Z,96327.91
2023-08-13T18:51:40.318Z,96323.50
2023-08-13T18:54:07.936Z,96328.88
2023-08-13T18:56:35.497Z,96315.38
2023-08-13T18:59:03.102Z,96309.34
2023-08-13T19:01:30.668Z,96312.28
2023-08-13T19:03:58.516Z,96317.06
2023-08-13T19:06:26.096Z,96323.91
2023-08-13T19:08:54.995Z,96340.53
2023-08-13T19:11:22.598Z,96340.72
2023-08-13T19:13:50.365Z,96337.06
2023-08-13T19:16:18.003Z,96329.91
2023-08-13T19:18:45.603Z,96335.34
2023-08-13T19:21:13.174Z,96341.84
2023-08-13T19:23:40.847Z,96349.81
2023-08-13T19:26:09.748Z,96354.03
2023-08-13T19:28:37.308Z,96350.38
2023-08-13T19:31:04.928Z,96353.06
2023-08-13T19:33:32.523Z,96359.81
2023-08-13T19:36:00.080Z,96362.81
2023-08-13T19:38:27.627Z,96361.59
2023-08-13T19:40:56.259Z,96366.03
2023-08-13T19:43:25.392Z,96373.25
2023-08-13T19:45:52.997Z,96367.47
2023-08-13T19:48:23.958Z,96370.81
2023-08-13T19:50:51.857Z,96367.59
2023-08-13T19:53:19.470Z,96374.28
2023-08-13T19:55:49.646Z,96381.50
2023-08-13T19:58:18.555Z,96395.91
2023-08-13T20:00:48.438Z,96404.50
2023-08-13T20:03:17.557Z,96412.06
2023-08-13T20:05:45.115Z,96410.53
2023-08-13T20:08:12.706Z,96400.69
2023-08-13T20:10:40.595Z,96388.28
2023-08-13T20:13:08.163Z,96393.78
2023-08-13T20:15:36.135Z,96407.22
2023-08-13T20:18:05.709Z,96406.63
2023-08-13T20:20:33.281Z,96415.69
2023-08-13T20:23:03.699Z,96408.41
2023-08-13T20:25:31.325Z,96411.06
2023-08-13T20:27:58.863Z,96400.72
2023-08-13T20:30:26.410Z,96398.03
2023-08-13T20:32:53.965Z,96395.50
2023-08-13T20:35:22.973Z,96398.97
2023-08-13T20:37:50.488Z,96399.59
2023-08-13T20:40:18.204Z,96397.06
2023-08-13T20:42:46.114Z,96398.97
2023-08-13T20:45:13.710Z,96399.69
2023-08-13T20:47:41.449Z,96380.16
2023-08-13T20:50:17.314Z,96375.44
2023-08-13T20:52:47.163Z,96375.50
2023-08-13T20:55:14.779Z,96379.84
2023-08-13T20:57:42.729Z,96376.03
2023-08-13T21:00:11.667Z,96376.97
2023-08-13T21:02:39.305Z,96371.09
2023-08-13T21:05:07.678Z,96381.94
2023-08-13T21:07:35.233Z,96386.09
2023-08-13T21:10:04.392Z,96391.94
2023-08-13T21:12:31.940Z,96387.06
2023-08-13T21:14:59.728Z,96380.75
2023-08-13T21:17:27.286Z,96375.81
2023-08-13T21:19:55.040Z,96383.31
2023-08-13T21:22:22.611Z,96389.09
2023-08-13T21:24:50.199Z,96391.59
2023-08-13T21:27:19.104Z,96389.63
2023-08-13T21:29:46.685Z,96406.78
2023-08-13T21:32:14.261Z,96393.88
2023-08-13T21:34:41.796Z,96399.63
2023-08-13T21:37:09.429Z,96389.22
2023-08-13T21:39:37.214Z,96393.78
2023-08-13T21:42:04.895Z,96399.03
2023-08-13T21:44:33.789Z,96401.00
2023-08-13T21:47:01.317Z,96402.28
2023-08-13T21:49:28.857Z,96397.59
2023-08-13T21:51:56.393Z,96399.63
2023-08-13T21:54:23.916Z,96406.47
2023-08-13T21:56:51.808Z,96399.13
2023-08-13T21:59:19.374Z,96398.59
2023-08-13T22:01:48.304Z,96399.56
2023-08-13T22:04:15.892Z,96391.69
2023-08-13T22:06:43.494Z,96388.97
2023-08-13T22:09:11.601Z,96391.81
2023-08-13T22:11:39.483Z,96398.97
2023-08-13T22:14:07.871Z,96404.84
2023-08-13T22:16:36.751Z,96409.06
2023-08-13T22:19:06.772Z,96408.34
2023-08-13T22:21:34.486Z,96405.63
2023-08-13T22:24:02.080Z,96411.97
2023-08-13T22:26:29.645Z,96411.97
2023-08-13T22:28:57.257Z,96408.69
2023-08-13T22:31:25.116Z,96407.25
2023-08-13T22:33:52.705Z,96409.91
2023-08-13T22:36:21.715Z,96409.44
2023-08-13T22:38:49.361Z,96415.94
2023-08-13T22:41:16.910Z,96415.44
2023-08-13T22:43:44.421Z,96412.09
2023-08-13T22:46:11.995Z,96411.63
2023-08-13T22:48:39.568Z,96410.34
2023-08-13T22:51:07.182Z,96405.53
2023-08-13T22:53:36.081Z,96405.13
2023-08-13T22:56:03.673Z,96410.34
2023-08-13T22:58:32.193Z,96411.19
2023-08-13T23:01:00.035Z,96401.31
2023-08-13T23:03:28.851Z,96394.47
2023-08-13T23:05:56.480Z,96396.47
2023-08-13T23:08:25.212Z,96384.97
2023-08-13T23:10:54.789Z,96396.97
2023-08-13T23:13:22.394Z,96400.53
2023-08-13T23:15:49.969Z,96396.97
2023-08-13T23:18:17.589Z,96399.72
2023-08-13T23:20:45.214Z,96397.75
2023-08-13T23:23:12.792Z,96405.22
2023-08-13T23:25:40.324Z,96413.47
2023-08-13T23:28:09.308Z,96415.09
2023-08-13T23:30:36.888Z,96415.84
2023-08-13T23:33:04.890Z,96417.22
2023-08-13T23:35:32.480Z,96412.06
2023-08-13T23:38:00.120Z,96405.81
2023-08-13T23:40:27.653Z,96408.16
2023-08-13T23:42:55.207Z,96417.34
2023-08-13T23:45:24.297Z,96418.38
2023-08-13T23:47:51.929Z,96434.97
2023-08-13T23:50:19.570Z,96456.63
2023-08-13T23:52:47.119Z,96460.34
2023-08-13T23:55:14.641Z,96470.63
2023-08-13T23:57:42.189Z,96471.44
